Sao Joaquim da Barra, Brazil
Current Conditions -  °F | °C
As of 1:00 PM on Friday 24 Oct 2014 (Local Time) from SBRP Reporting Station
Few Clouds Few Clouds  
Wind Chill: 88°   Ceiling: Unl
Heat Index: 88°   Visibility: 6mi
Dew Point: 57°   Wind: 7mph
Humidity: 35%   Direction: 330°NNW
Pressure: 30"   Gusts: NA
Location:  20.58°S, 47.86°W
Report Text: SBRP 241500Z 33006KT 9999 FEW040 31/14 Q1016
Loading
Personal Weather Stations






























Interactive Weather Map
Tropical Storm Tracking
New forecast layout! Learn more

10-Day Weather Forecast

Advertisements
Track Severe Weather on mobile